createdAt,value
2018-09-05T05:50:26.792Z,99.90
2018-09-05T05:52:54.395Z,99.90
2018-09-05T05:55:21.913Z,99.90
2018-09-05T05:57:49.450Z,99.90
2018-09-05T06:00:16.998Z,99.90
2018-09-05T06:02:44.480Z,99.90
2018-09-05T06:05:11.998Z,99.90
2018-09-05T06:07:39.556Z,99.90
2018-09-05T06:10:07.168Z,99.90
2018-09-05T06:12:35.084Z,99.90
2018-09-05T06:15:02.664Z,99.90
2018-09-05T06:17:30.248Z,99.90
2018-09-05T06:19:57.780Z,99.90
2018-09-05T06:22:25.298Z,99.90
2018-09-05T06:24:52.882Z,99.90
2018-09-05T06:27:20.470Z,99.90
2018-09-05T06:29:48.022Z,99.90
2018-09-05T06:32:15.605Z,99.90
2018-09-05T06:34:43.122Z,99.90
2018-09-05T06:37:10.606Z,99.90
2018-09-05T06:39:38.221Z,99.90
2018-09-05T06:42:05.926Z,99.90
2018-09-05T06:44:33.556Z,99.90
2018-09-05T06:47:01.081Z,99.90
2018-09-05T06:49:28.590Z,99.90
2018-09-05T06:51:56.114Z,99.90
2018-09-05T06:54:23.610Z,99.90
2018-09-05T06:56:51.130Z,99.90
2018-09-05T06:59:18.755Z,99.90
2018-09-05T07:01:46.264Z,99.90
2018-09-05T07:04:13.791Z,99.90
2018-09-05T07:06:41.266Z,99.90
2018-09-05T07:09:10.488Z,99.90
2018-09-05T07:11:38.442Z,99.90
2018-09-05T07:14:06.225Z,99.90
2018-09-05T07:16:33.721Z,99.90
2018-09-05T07:19:01.305Z,99.90
2018-09-05T07:21:28.939Z,99.90
2018-09-05T07:23:56.347Z,99.90
2018-09-05T07:26:23.904Z,99.90
2018-09-05T07:28:51.402Z,99.90
2018-09-05T07:31:18.910Z,99.90
2018-09-05T07:33:46.398Z,99.90
2018-09-05T07:36:13.909Z,99.90
2018-09-05T07:38:41.426Z,99.90
2018-09-05T07:41:08.929Z,99.90
2018-09-05T07:43:37.092Z,99.90
2018-09-05T07:46:04.690Z,99.90
2018-09-05T07:48:32.274Z,99.90
2018-09-05T07:50:59.851Z,99.90
2018-09-05T07:53:27.302Z,99.90
2018-09-05T07:55:54.798Z,99.90
2018-09-05T07:58:22.365Z,99.90
2018-09-05T08:00:49.896Z,99.90
2018-09-05T08:03:17.403Z,99.90
2018-09-05T08:05:44.898Z,99.90
2018-09-05T08:08:12.431Z,99.90
2018-09-05T08:10:39.947Z,99.90
2018-09-05T08:13:07.439Z,99.90
2018-09-05T08:15:34.957Z,99.90
2018-09-05T08:18:02.537Z,99.90
2018-09-05T08:20:30.032Z,99.90
2018-09-05T08:22:57.565Z,99.90
2018-09-05T08:25:25.070Z,99.90
2018-09-05T08:27:52.595Z,99.90
2018-09-05T08:30:20.105Z,99.90
2018-09-05T08:32:47.645Z,99.90
2018-09-05T08:35:15.316Z,99.90
2018-09-05T08:37:42.859Z,99.90
2018-09-05T08:40:10.288Z,99.90
2018-09-05T08:42:37.791Z,99.90
2018-09-05T08:45:06.055Z,99.90
2018-09-05T08:47:33.629Z,99.90
2018-09-05T08:50:01.521Z,99.90
2018-09-05T08:52:29.557Z,99.90
2018-09-05T08:54:57.126Z,99.90
2018-09-05T08:57:24.630Z,99.90
2018-09-05T08:59:52.156Z,99.90
2018-09-05T09:02:19.660Z,99.90
2018-09-05T09:04:47.317Z,99.90
2018-09-05T09:07:14.728Z,99.90
2018-09-05T09:09:42.236Z,99.90
2018-09-05T09:12:09.728Z,99.90
2018-09-05T09:14:37.247Z,99.90
2018-09-05T09:17:04.786Z,99.90
2018-09-05T09:19:32.421Z,99.90
2018-09-05T09:21:59.945Z,99.90
2018-09-05T09:24:27.541Z,99.90
2018-09-05T09:26:55.046Z,99.90
2018-09-05T09:29:22.556Z,99.90
2018-09-05T09:31:50.082Z,99.90
2018-09-05T09:34:17.603Z,99.90
2018-09-05T09:36:45.099Z,99.90
2018-09-05T09:39:12.629Z,99.90
2018-09-05T09:41:40.523Z,99.90
2018-09-05T09:44:08.051Z,99.90
2018-09-05T09:46:36.228Z,99.90
2018-09-05T09:49:03.703Z,99.90
2018-09-05T09:51:31.223Z,99.90
2018-09-05T09:53:58.751Z,99.90
2018-09-05T09:56:26.294Z,99.90
2018-09-05T09:58:53.959Z,99.90
2018-09-05T10:01:27.041Z,99.90
2018-09-05T10:04:00.265Z,99.80
2018-09-05T10:06:33.425Z,99.80
2018-09-05T10:09:06.655Z,99.80
2018-09-05T10:11:39.877Z,99.80
2018-09-05T10:14:09.639Z,99.90
2018-09-05T10:16:44.610Z,99.90
2018-09-05T10:19:12.591Z,99.90
2018-09-05T10:21:40.173Z,99.70
2018-09-05T10:24:07.819Z,99.60
2018-09-05T10:26:35.464Z,99.60
2018-09-05T10:29:03.033Z,99.60
2018-09-05T10:31:30.631Z,99.50
2018-09-05T10:33:58.199Z,99.30
2018-09-05T10:36:25.717Z,99.20
2018-09-05T10:38:53.236Z,98.80
2018-09-05T10:41:20.789Z,98.00
2018-09-05T10:43:48.325Z,97.90
2018-09-05T10:46:15.842Z,97.70
2018-09-05T10:48:43.355Z,97.30
2018-09-05T10:51:10.899Z,96.80
2018-09-05T10:53:38.443Z,95.80
2018-09-05T10:56:05.986Z,95.70
2018-09-05T10:58:33.522Z,95.90
2018-09-05T11:01:01.114Z,95.80
2018-09-05T11:03:28.609Z,95.30
2018-09-05T11:05:56.144Z,95.60
2018-09-05T11:08:23.651Z,95.70
2018-09-05T11:10:51.244Z,95.90
2018-09-05T11:13:18.776Z,96.00
2018-09-05T11:15:46.331Z,96.70
2018-09-05T11:18:13.846Z,96.60
2018-09-05T11:20:41.568Z,96.40
2018-09-05T11:23:09.099Z,95.70
2018-09-05T11:25:36.622Z,95.60
2018-09-05T11:28:04.191Z,95.10
2018-09-05T11:30:31.748Z,94.20
2018-09-05T11:32:59.237Z,94.50
2018-09-05T11:35:26.791Z,94.60
2018-09-05T11:37:54.347Z,94.20
2018-09-05T11:40:21.902Z,94.00
2018-09-05T11:42:49.434Z,94.30
2018-09-05T11:45:16.981Z,94.40
2018-09-05T11:47:44.503Z,93.90
2018-09-05T11:50:12.026Z,94.10
2018-09-05T11:52:39.543Z,93.80
2018-09-05T11:55:07.061Z,93.40
2018-09-05T11:57:34.639Z,93.40
2018-09-05T12:00:02.282Z,93.20
2018-09-05T12:02:29.841Z,92.40
2018-09-05T12:04:57.449Z,92.10
2018-09-05T12:07:24.959Z,92.00
2018-09-05T12:09:52.489Z,91.70
2018-09-05T12:12:20.125Z,91.40
2018-09-05T12:14:47.655Z,91.50
2018-09-05T12:17:15.250Z,91.20
2018-09-05T12:19:42.742Z,90.70
2018-09-05T12:22:10.269Z,91.00
2018-09-05T12:24:37.801Z,91.40
2018-09-05T12:27:05.278Z,91.80
2018-09-05T12:29:32.907Z,92.10
2018-09-05T12:32:00.462Z,92.10
2018-09-05T12:34:28.040Z,92.10
2018-09-05T12:36:55.561Z,92.30
2018-09-05T12:39:23.076Z,92.30
2018-09-05T12:41:50.621Z,91.30
2018-09-05T12:44:18.132Z,91.00
2018-09-05T12:46:45.677Z,90.40
2018-09-05T12:49:13.199Z,89.50
2018-09-05T12:51:40.803Z,88.00
2018-09-05T12:54:09.111Z,87.10
2018-09-05T12:56:36.633Z,87.00
2018-09-05T12:59:04.380Z,87.00
2018-09-05T13:01:31.911Z,85.80
2018-09-05T13:04:06.243Z,84.40
2018-09-05T13:06:34.162Z,83.70
2018-09-05T13:09:01.731Z,83.50
2018-09-05T13:11:29.303Z,84.00
2018-09-05T13:13:56.785Z,82.90
2018-09-05T13:16:24.291Z,83.30
2018-09-05T13:18:51.792Z,82.70
2018-09-05T13:21:19.290Z,82.00
2018-09-05T13:23:46.872Z,80.70
2018-09-05T13:26:14.405Z,79.90
2018-09-05T13:28:41.924Z,78.90
2018-09-05T13:31:09.479Z,78.10
2018-09-05T13:33:37.038Z,77.80
2018-09-05T13:36:04.639Z,76.40
2018-09-05T13:38:32.196Z,74.80
2018-09-05T13:40:59.736Z,73.90
2018-09-05T13:43:27.287Z,73.20
2018-09-05T13:45:54.811Z,71.20
2018-09-05T13:48:22.316Z,73.10
2018-09-05T13:50:49.926Z,73.80
2018-09-05T13:53:17.438Z,73.50
2018-09-05T13:55:44.976Z,74.80
2018-09-05T13:58:12.472Z,75.10
2018-09-05T14:00:39.996Z,74.90
2018-09-05T14:03:07.529Z,76.00
2018-09-05T14:05:35.035Z,75.60
2018-09-05T14:08:02.564Z,75.90
2018-09-05T14:10:30.074Z,76.30
2018-09-05T14:12:57.662Z,76.50
2018-09-05T14:15:25.216Z,75.70
2018-09-05T14:17:52.786Z,74.30
2018-09-05T14:20:20.389Z,74.30
2018-09-05T14:22:48.610Z,73.30
2018-09-05T14:25:16.130Z,72.50
2018-09-05T14:27:43.633Z,71.30
2018-09-05T14:30:11.144Z,70.20
2018-09-05T14:32:38.669Z,69.00
2018-09-05T14:35:06.231Z,69.70
2018-09-05T14:37:33.707Z,69.40
2018-09-05T14:40:01.347Z,69.10
2018-09-05T14:42:28.788Z,69.70
2018-09-05T14:44:56.306Z,70.00
2018-09-05T14:47:23.858Z,69.60
2018-09-05T14:49:51.384Z,68.60
2018-09-05T14:52:18.929Z,67.90
2018-09-05T14:54:46.475Z,67.60
2018-09-05T14:57:14.037Z,67.50
2018-09-05T14:59:41.610Z,68.10
2018-09-05T15:02:09.198Z,67.90
2018-09-05T15:04:36.723Z,67.50
2018-09-05T15:07:04.545Z,67.30
2018-09-05T15:09:32.093Z,67.30
2018-09-05T15:11:59.682Z,68.20
2018-09-05T15:14:27.153Z,70.20
2018-09-05T15:16:54.701Z,71.90
2018-09-05T15:19:22.259Z,72.50
2018-09-05T15:21:49.853Z,73.30
2018-09-05T15:24:17.427Z,73.40
2018-09-05T15:26:44.995Z,72.40
2018-09-05T15:29:12.537Z,72.60
2018-09-05T15:31:40.151Z,72.80
2018-09-05T15:34:07.636Z,72.00
2018-09-05T15:36:35.125Z,71.70
2018-09-05T15:39:03.065Z,71.70
2018-09-05T15:41:30.595Z,71.70
2018-09-05T15:43:58.119Z,71.50
2018-09-05T15:46:25.683Z,71.40
2018-09-05T15:48:53.281Z,72.20
2018-09-05T15:51:20.798Z,72.10
2018-09-05T15:53:48.389Z,72.50
2018-09-05T15:56:15.911Z,72.50
2018-09-05T15:58:43.425Z,72.60
2018-09-05T16:01:10.963Z,73.40
2018-09-05T16:03:38.538Z,73.80
2018-09-05T16:06:06.105Z,73.60
2018-09-05T16:08:33.665Z,74.00
2018-09-05T16:11:01.191Z,74.90
2018-09-05T16:13:28.691Z,76.40
2018-09-05T16:15:56.265Z,77.20
2018-09-05T16:18:23.765Z,78.30
2018-09-05T16:20:51.271Z,79.10
2018-09-05T16:23:18.817Z,80.40
2018-09-05T16:25:46.347Z,81.30
2018-09-05T16:28:13.874Z,82.00
2018-09-05T16:30:41.403Z,83.90
2018-09-05T16:33:08.931Z,85.00
2018-09-05T16:35:36.465Z,86.70
2018-09-05T16:38:04.088Z,87.50
2018-09-05T16:40:31.589Z,89.60
2018-09-05T16:42:59.145Z,89.70
2018-09-05T16:45:26.742Z,90.00
2018-09-05T16:47:54.327Z,90.90
2018-09-05T16:50:22.199Z,91.20
2018-09-05T16:52:49.742Z,91.60
2018-09-05T16:55:17.266Z,92.00
2018-09-05T16:57:44.884Z,92.20
2018-09-05T17:00:12.456Z,93.10
2018-09-05T17:02:40.072Z,92.90
2018-09-05T17:05:07.664Z,93.10
2018-09-05T17:07:35.253Z,93.20
2018-09-05T17:10:02.881Z,93.50
2018-09-05T17:12:30.394Z,93.90
2018-09-05T17:14:57.909Z,94.20
2018-09-05T17:17:25.433Z,94.90
2018-09-05T17:19:52.938Z,95.20
2018-09-05T17:22:20.486Z,95.70
2018-09-05T17:24:47.970Z,96.20
2018-09-05T17:27:15.582Z,96.50
2018-09-05T17:29:43.167Z,96.80
2018-09-05T17:32:10.692Z,97.10
2018-09-05T17:34:38.274Z,97.30
2018-09-05T17:37:06.108Z,97.60
2018-09-05T17:39:33.672Z,98.10
2018-09-05T17:42:01.219Z,98.20
2018-09-05T17:44:28.799Z,98.90
2018-09-05T17:46:56.297Z,98.90
2018-09-05T17:49:23.801Z,99.50
2018-09-05T17:51:51.339Z,99.60
2018-09-05T17:54:18.911Z,99.60
2018-09-05T17:56:46.441Z,99.50
2018-09-05T17:59:14.014Z,99.50
2018-09-05T18:01:41.626Z,99.90
2018-09-05T18:04:09.176Z,99.90
2018-09-05T18:06:36.746Z,99.90
2018-09-05T18:09:06.481Z,99.90
2018-09-05T18:11:33.998Z,99.90
2018-09-05T18:14:01.542Z,99.90
2018-09-05T18:16:29.227Z,99.90
2018-09-05T18:18:56.751Z,99.90
2018-09-05T18:21:24.337Z,99.90
2018-09-05T18:23:51.870Z,99.90
2018-09-05T18:26:19.412Z,99.90
2018-09-05T18:28:46.997Z,99.90
2018-09-05T18:31:14.493Z,99.90
2018-09-05T18:33:42.007Z,99.90
2018-09-05T18:36:09.550Z,99.90
2018-09-05T18:38:37.100Z,99.90
2018-09-05T18:41:04.798Z,99.90
2018-09-05T18:43:32.310Z,99.90
2018-09-05T18:45:59.817Z,99.90
2018-09-05T18:48:27.626Z,99.90
2018-09-05T18:50:55.234Z,99.90
2018-09-05T18:53:22.754Z,99.90
2018-09-05T18:55:50.373Z,99.90
2018-09-05T18:58:17.896Z,99.90
2018-09-05T19:00:45.431Z,99.90
2018-09-05T19:03:12.958Z,99.90
2018-09-05T19:05:40.516Z,99.90
2018-09-05T19:08:08.037Z,99.90
2018-09-05T19:10:35.681Z,99.90
2018-09-05T19:13:03.315Z,99.90
2018-09-05T19:15:30.946Z,99.90
2018-09-05T19:17:58.482Z,99.90
2018-09-05T19:20:26.113Z,99.90
2018-09-05T19:22:53.638Z,99.90
2018-09-05T19:25:21.342Z,99.90
2018-09-05T19:27:49.315Z,99.90
2018-09-05T19:30:16.840Z,99.90
2018-09-05T19:32:44.329Z,99.90
2018-09-05T19:35:11.914Z,99.90
2018-09-05T19:37:39.394Z,99.90
2018-09-05T19:40:07.388Z,99.90
2018-09-05T19:42:35.851Z,99.90
2018-09-05T19:45:03.556Z,99.90
2018-09-05T19:47:31.084Z,99.90
2018-09-05T19:49:58.647Z,99.90
2018-09-05T19:52:26.266Z,99.90
2018-09-05T19:54:53.840Z,99.90
2018-09-05T19:57:21.438Z,99.90
2018-09-05T19:59:48.944Z,99.90
2018-09-05T20:02:16.465Z,99.90
2018-09-05T20:04:44.062Z,99.90
2018-09-05T20:07:11.613Z,99.90
2018-09-05T20:09:39.112Z,99.90
2018-09-05T20:12:06.682Z,99.90
2018-09-05T20:14:34.231Z,99.90
2018-09-05T20:17:01.782Z,99.90
2018-09-05T20:19:29.296Z,99.90
2018-09-05T20:21:56.842Z,99.90
2018-09-05T20:24:24.390Z,99.90
2018-09-05T20:26:51.930Z,99.90
2018-09-05T20:29:19.600Z,99.90
2018-09-05T20:31:47.091Z,99.90
2018-09-05T20:34:14.605Z,99.90
2018-09-05T20:36:42.209Z,99.90
2018-09-05T20:39:11.056Z,99.90
2018-09-05T20:41:38.567Z,99.90
2018-09-05T20:44:06.131Z,99.90
2018-09-05T20:46:33.683Z,99.90
2018-09-05T20:49:01.213Z,99.90
2018-09-05T20:51:28.705Z,99.90
2018-09-05T20:53:56.215Z,99.90
2018-09-05T20:56:23.720Z,99.90
2018-09-05T20:58:51.321Z,99.90
2018-09-05T21:01:18.843Z,99.90
2018-09-05T21:03:46.383Z,99.90
2018-09-05T21:06:13.948Z,99.90
2018-09-05T21:08:41.522Z,99.90
2018-09-05T21:11:08.981Z,99.90
2018-09-05T21:13:36.499Z,99.90
2018-09-05T21:16:04.090Z,99.90
2018-09-05T21:18:31.635Z,99.90
2018-09-05T21:20:59.707Z,99.90
2018-09-05T21:23:29.361Z,99.90
2018-09-05T21:25:56.929Z,99.90
2018-09-05T21:28:24.611Z,99.90
2018-09-05T21:30:52.222Z,99.90
2018-09-05T21:33:19.738Z,99.90
2018-09-05T21:35:47.253Z,99.90
2018-09-05T21:38:14.791Z,99.90
2018-09-05T21:40:42.359Z,99.90
2018-09-05T21:43:09.877Z,99.90
2018-09-05T21:45:37.507Z,99.90
2018-09-05T21:48:05.180Z,99.90
2018-09-05T21:50:32.681Z,99.90
2018-09-05T21:53:00.268Z,99.90
2018-09-05T21:55:27.872Z,99.90
2018-09-05T21:57:55.404Z,99.90
2018-09-05T22:00:22.971Z,99.90
2018-09-05T22:02:50.521Z,99.90
2018-09-05T22:05:18.025Z,99.90
2018-09-05T22:07:45.540Z,99.90
2018-09-05T22:10:13.061Z,99.90
2018-09-05T22:12:40.577Z,99.90
2018-09-05T22:15:08.094Z,99.90
2018-09-05T22:17:35.626Z,99.90
2018-09-05T22:20:03.200Z,99.90
2018-09-05T22:22:30.710Z,99.90
2018-09-05T22:24:58.223Z,99.90
2018-09-05T22:27:25.807Z,99.90
2018-09-05T22:29:53.356Z,99.90
2018-09-05T22:32:20.927Z,99.90
2018-09-05T22:34:48.498Z,99.90
2018-09-05T22:37:15.962Z,99.90
2018-09-05T22:39:43.495Z,99.90
2018-09-05T22:42:12.383Z,99.90
2018-09-05T22:44:52.299Z,99.90
2018-09-05T22:47:31.074Z,99.90
2018-09-05T22:50:14.501Z,99.90
2018-09-05T22:57:04.082Z,99.90
2018-09-05T23:00:16.395Z,99.90
2018-09-05T23:03:00.146Z,99.90
2018-09-05T23:06:10.133Z,99.90
2018-09-05T23:08:40.785Z,99.90
2018-09-05T23:11:20.050Z,99.90
2018-09-05T23:13:59.325Z,99.90
2018-09-05T23:16:51.916Z,99.90
2018-09-05T23:19:31.602Z,99.90
2018-09-05T23:21:59.075Z,99.90
2018-09-05T23:24:26.575Z,99.90
2018-09-05T23:26:54.170Z,99.90
2018-09-05T23:29:21.822Z,99.90
2018-09-05T23:31:49.314Z,99.90
2018-09-05T23:34:16.819Z,99.90
2018-09-05T23:36:44.328Z,99.90
2018-09-05T23:39:11.827Z,99.90
2018-09-05T23:41:39.348Z,99.90
2018-09-05T23:44:06.879Z,99.90
2018-09-05T23:46:34.404Z,99.90
2018-09-05T23:49:01.921Z,99.90
2018-09-05T23:51:29.427Z,99.90
2018-09-05T23:53:56.952Z,99.90
2018-09-05T23:56:24.560Z,99.90
2018-09-05T23:58:52.065Z,99.90
